METAR Data
IDs: Format: Raw Decoded Include TAF

Data at: 1903 UTC 09 Dec 2018

Region: TOP
KATL 091852Z 07014G21KT 8SM OVC009 03/01 A2995 RMK AO2 DZE50 SLP147 P0000 T00280006 $

KBOS 091854Z 24010KT 10SM FEW030 SCT250 03/M08 A3028 RMK AO2 SLP253 T00281083

KBWI 091854Z VRB06KT 10SM OVC130 01/M08 A3032 RMK AO2 SLP269 T00061078 $

KCLE 091851Z 00000KT 10SM BKN250 01/M09 A3029 RMK AO2 SLP269 T00111094

KCLT 091852Z 02012KT 5SM -FZDZ BR BKN009 BKN014 OVC044 01/M01 A3001 RMK AO2 FZRAE48FZDZB48PLE19 SLP164 P0001 T00061006 $

KCVG 091852Z 04008KT 10SM FEW150 SCT200 SCT250 03/M07 A3021 RMK AO2 SLP235 T00281067

KDCA 091852Z 03009KT 10SM BKN033 OVC100 02/M07 A3033 RMK AO2 SLP270 T00171067

KDEN 091853Z 00000KT 10SM FEW080 FEW140 04/M07 A3035 RMK AO2 SLP286 T00441072

KDFW 091853Z 33011KT 10SM FEW040 FEW250 09/01 A3030 RMK AO2 SLP261 T00890011 $

KDTW 091853Z VRB05KT 10SM FEW250 02/M08 A3030 RMK AO2 SLP270 T00171078

KEWR 091851Z VRB03KT 10SM BKN220 02/M07 A3034 RMK AO2 SLP274 T00221072 $

KFLL 091853Z AUTO 23011G20KT 10SM SCT031 SCT044 28/23 A2993 RMK AO2 PK WND 22028/1807 SLP136 T02780228

KIAD 091852Z 01008KT 10SM SCT038 OVC110 00/M07 A3032 RMK AO2 SLP270 T00001067

KIAH 091853Z 31010KT 10SM OVC014 08/06 A3028 RMK AO2 SLP252 T00830056

KJFK 091851Z 00000KT 10SM FEW035 BKN220 02/M06 A3036 RMK AO2 SLP279 T00171056

KLAS 091856Z 06004KT 10SM FEW220 FEW250 13/02 A3040 RMK AO2 SLP291 T01330017

KLAX 091853Z 03004KT 10SM FEW180 FEW230 BKN300 21/07 A3027 RMK AO2 SLP248 T02110067 $

KLGA 091851Z 22007KT 10SM FEW040 SCT150 OVC220 02/M09 A3034 RMK AO2 SLP272 T00221089

KMCO 091853Z 21014G24KT 10SM SCT015 BKN038 OVC070 21/20 A2989 RMK AO2 RAE23 SLP119 P0002 T02110200 $

KMDW 091853Z 36005KT 10SM FEW016 01/M07 A3034 RMK AO2 SLP289 T00061067

KMEM 091854Z 34008KT 5SM BR OVC007 00/M01 A3016 RMK AO2 SLP215 T00001011 $

KMIA 091853Z 21016KT 10SM BKN030 BKN060 OVC250 28/22 A2995 RMK AO2 SLP143 T02780222 $

KMSP 091853Z 19003KT 9SM CLR M02/M08 A3031 RMK AO2 SLP279 T10221078 $

KORD 091851Z 29007KT 9SM FEW014 FEW180 00/M07 A3034 RMK AO2 SLP283 T00001067 $

KPDX 091853Z 13013KT 8SM -RA OVC070 04/M01 A3022 RMK AO2 RAB00 SLP232 P0002 T00391006 $

KPHL 091854Z 00000KT 10SM OVC170 02/M08 A3035 RMK AO2 SLP278 T00171078 $

KPHX 091851Z 00000KT 10SM FEW250 18/06 A3029 RMK AO2 SLP249 T01780061

KPIT 091851Z 08003KT 10SM FEW160 OVC250 M01/M09 A3024 RMK AO2 SLP263 T10061089

KSAN 091851Z 28003KT 10SM FEW250 20/08 A3027 RMK AO2 SLP249 T02000083

KSEA 091853Z 11009KT 4SM -RA FEW038 BKN045 OVC055 07/03 A3016 RMK AO2 SLP220 P0007 T00670033

KSFO 091856Z 02006KT 6SM HZ FEW008 BKN011 OVC180 11/08 A3033 RMK AO2 SLP271 T01060078

KSLC 091854Z 23005KT 5SM HZ BKN018 02/M02 A3053 RMK AO2 SLP351 T00171022 $

KSTL 091851Z 34009KT 10SM FEW250 01/M06 A3031 RMK AO2 SLP276 T00061061

KTPA 091753Z 24009KT 10SM FEW016 SCT055 BKN090 BKN150 22/20 A2993 RMK AO2 RAB1654E05 SLP135 P0000 60167 T02170200 10222 20194 56025